sensor_id;sensor_type;location;lat;lon;timestamp;temperature;humidity
36132;DHT22;22185;48.738;9.324;2022-10-17T00:01:54;13.20;99.90
36132;DHT22;22185;48.738;9.324;2022-10-17T00:03:55;13.20;99.90
36132;DHT22;22185;48.738;9.324;2022-10-17T00:05:57;13.20;99.90
36132;DHT22;22185;48.738;9.324;2022-10-17T00:07:59;13.10;99.90
36132;DHT22;22185;48.738;9.324;2022-10-17T00:10:00;13.10;99.90
36132;DHT22;22185;48.738;9.324;2022-10-17T00:12:02;13.20;99.90
36132;DHT22;22185;48.738;9.324;2022-10-17T00:14:03;13.00;99.90
36132;DHT22;22185;48.738;9.324;2022-10-17T00:16:05;13.10;99.90
36132;DHT22;22185;48.738;9.324;2022-10-17T00:18:07;13.10;99.90
36132;DHT22;22185;48.738;9.324;2022-10-17T00:20:09;13.10;99.90
36132;DHT22;22185;48.738;9.324;2022-10-17T00:22:11;13.10;99.90
36132;DHT22;22185;48.738;9.324;2022-10-17T00:24:13;13.00;99.90
36132;DHT22;22185;48.738;9.324;2022-10-17T00:26:15;13.10;99.90
36132;DHT22;22185;48.738;9.324;2022-10-17T00:28:16;13.00;99.90
36132;DHT22;22185;48.738;9.324;2022-10-17T00:30:18;13.00;99.90
36132;DHT22;22185;48.738;9.324;2022-10-17T00:32:19;12.90;99.90
36132;DHT22;22185;48.738;9.324;2022-10-17T00:34:21;12.90;99.90
36132;DHT22;22185;48.738;9.324;2022-10-17T00:36:24;12.90;99.90
36132;DHT22;22185;48.738;9.324;2022-10-17T00:38:25;12.80;99.90
36132;DHT22;22185;48.738;9.324;2022-10-17T00:40:27;12.80;99.90
36132;DHT22;22185;48.738;9.324;2022-10-17T00:42:29;12.80;99.90
36132;DHT22;22185;48.738;9.324;2022-10-17T00:46:34;12.90;99.90
36132;DHT22;22185;48.738;9.324;2022-10-17T00:48:35;12.90;99.90
36132;DHT22;22185;48.738;9.324;2022-10-17T00:50:37;13.00;99.90
36132;DHT22;22185;48.738;9.324;2022-10-17T00:52:39;12.90;99.90
36132;DHT22;22185;48.738;9.324;2022-10-17T00:54:43;12.90;99.90
36132;DHT22;22185;48.738;9.324;2022-10-17T00:56:46;12.90;99.90
36132;DHT22;22185;48.738;9.324;2022-10-17T00:58:48;12.90;99.90
36132;DHT22;22185;48.738;9.324;2022-10-17T01:00:50;12.80;99.90
36132;DHT22;22185;48.738;9.324;2022-10-17T01:02:51;12.70;99.90
36132;DHT22;22185;48.738;9.324;2022-10-17T01:04:53;12.80;99.90
36132;DHT22;22185;48.738;9.324;2022-10-17T01:06:57;12.80;99.90
36132;DHT22;22185;48.738;9.324;2022-10-17T01:08:58;12.70;99.90
36132;DHT22;22185;48.738;9.324;2022-10-17T01:11:04;12.80;99.90
36132;DHT22;22185;48.738;9.324;2022-10-17T01:15:34;12.70;99.90
36132;DHT22;22185;48.738;9.324;2022-10-17T01:19:56;12.70;99.90
36132;DHT22;22185;48.738;9.324;2022-10-17T01:26:21;12.80;99.90
36132;DHT22;22185;48.738;9.324;2022-10-17T01:37:28;12.60;99.90
36132;DHT22;22185;48.738;9.324;2022-10-17T01:39:41;12.50;99.90
36132;DHT22;22185;48.738;9.324;2022-10-17T01:41:50;12.50;99.90
36132;DHT22;22185;48.738;9.324;2022-10-17T01:43:58;12.50;99.90
36132;DHT22;22185;48.738;9.324;2022-10-17T01:46:12;12.40;99.90
36132;DHT22;22185;48.738;9.324;2022-10-17T01:48:17;12.40;99.90
36132;DHT22;22185;48.738;9.324;2022-10-17T01:50:25;12.50;99.90
36132;DHT22;22185;48.738;9.324;2022-10-17T01:53:32;12.40;99.90
36132;DHT22;22185;48.738;9.324;2022-10-17T01:55:03;12.40;99.90
36132;DHT22;22185;48.738;9.324;2022-10-17T01:57:22;12.40;99.90
36132;DHT22;22185;48.738;9.324;2022-10-17T01:59:35;12.40;99.90
36132;DHT22;22185;48.738;9.324;2022-10-17T02:01:38;12.40;99.90
36132;DHT22;22185;48.738;9.324;2022-10-17T02:03:41;12.40;99.90
36132;DHT22;22185;48.738;9.324;2022-10-17T02:05:44;12.40;99.90
36132;DHT22;22185;48.738;9.324;2022-10-17T02:07:45;12.30;99.90
36132;DHT22;22185;48.738;9.324;2022-10-17T02:09:47;12.40;99.90
36132;DHT22;22185;48.738;9.324;2022-10-17T02:12:08;12.30;99.90
36132;DHT22;22185;48.738;9.324;2022-10-17T02:16:20;12.20;99.90
36132;DHT22;22185;48.738;9.324;2022-10-17T02:26:18;12.00;99.90
36132;DHT22;22185;48.738;9.324;2022-10-17T02:27:50;12.00;99.90
36132;DHT22;22185;48.738;9.324;2022-10-17T02:32:44;12.20;99.90
36132;DHT22;22185;48.738;9.324;2022-10-17T02:34:51;12.10;99.90
36132;DHT22;22185;48.738;9.324;2022-10-17T02:36:56;12.10;99.90
36132;DHT22;22185;48.738;9.324;2022-10-17T02:38:58;12.00;99.90
36132;DHT22;22185;48.738;9.324;2022-10-17T02:41:01;12.00;99.90
36132;DHT22;22185;48.738;9.324;2022-10-17T02:43:04;11.90;99.90
36132;DHT22;22185;48.738;9.324;2022-10-17T02:45:05;12.00;99.90
36132;DHT22;22185;48.738;9.324;2022-10-17T02:49:29;12.00;99.90
36132;DHT22;22185;48.738;9.324;2022-10-17T02:53:36;12.00;99.90
36132;DHT22;22185;48.738;9.324;2022-10-17T02:55:42;12.00;99.90
36132;DHT22;22185;48.738;9.324;2022-10-17T02:59:47;11.90;99.90
36132;DHT22;22185;48.738;9.324;2022-10-17T03:01:50;11.90;99.90
36132;DHT22;22185;48.738;9.324;2022-10-17T03:04:03;12.00;99.90
36132;DHT22;22185;48.738;9.324;2022-10-17T03:06:04;11.90;99.90
36132;DHT22;22185;48.738;9.324;2022-10-17T03:08:06;11.90;99.90
36132;DHT22;22185;48.738;9.324;2022-10-17T03:10:07;11.90;99.90
36132;DHT22;22185;48.738;9.324;2022-10-17T03:12:09;11.80;99.90
36132;DHT22;22185;48.738;9.324;2022-10-17T03:14:11;11.70;99.90
36132;DHT22;22185;48.738;9.324;2022-10-17T03:16:13;11.70;99.90
36132;DHT22;22185;48.738;9.324;2022-10-17T03:18:15;11.80;99.90
36132;DHT22;22185;48.738;9.324;2022-10-17T03:20:17;11.90;99.90
36132;DHT22;22185;48.738;9.324;2022-10-17T03:22:19;11.90;99.90
36132;DHT22;22185;48.738;9.324;2022-10-17T03:24:20;11.90;99.90
36132;DHT22;22185;48.738;9.324;2022-10-17T03:26:22;12.00;99.90
36132;DHT22;22185;48.738;9.324;2022-10-17T03:28:24;11.90;99.90
36132;DHT22;22185;48.738;9.324;2022-10-17T03:30:27;11.80;99.90
36132;DHT22;22185;48.738;9.324;2022-10-17T03:32:28;11.80;99.90
36132;DHT22;22185;48.738;9.324;2022-10-17T03:34:30;11.70;99.90
36132;DHT22;22185;48.738;9.324;2022-10-17T03:36:31;11.70;99.90
36132;DHT22;22185;48.738;9.324;2022-10-17T03:38:33;11.70;99.90
36132;DHT22;22185;48.738;9.324;2022-10-17T03:40:35;11.60;99.90
36132;DHT22;22185;48.738;9.324;2022-10-17T03:42:37;11.60;99.90
36132;DHT22;22185;48.738;9.324;2022-10-17T03:44:39;11.60;99.90
36132;DHT22;22185;48.738;9.324;2022-10-17T03:46:41;11.60;99.90
36132;DHT22;22185;48.738;9.324;2022-10-17T03:48:42;11.60;99.90
36132;DHT22;22185;48.738;9.324;2022-10-17T03:50:44;11.60;99.90
36132;DHT22;22185;48.738;9.324;2022-10-17T03:52:47;11.60;99.90
36132;DHT22;22185;48.738;9.324;2022-10-17T03:54:49;11.50;99.90
36132;DHT22;22185;48.738;9.324;2022-10-17T03:56:51;11.50;99.90
36132;DHT22;22185;48.738;9.324;2022-10-17T03:58:53;11.50;99.90
36132;DHT22;22185;48.738;9.324;2022-10-17T04:00:55;11.50;99.90
36132;DHT22;22185;48.738;9.324;2022-10-17T04:02:57;11.40;99.90
36132;DHT22;22185;48.738;9.324;2022-10-17T04:05:00;11.50;99.90
36132;DHT22;22185;48.738;9.324;2022-10-17T04:07:01;11.50;99.90
36132;DHT22;22185;48.738;9.324;2022-10-17T04:09:05;11.40;99.90
36132;DHT22;22185;48.738;9.324;2022-10-17T04:11:08;11.50;99.90
36132;DHT22;22185;48.738;9.324;2022-10-17T04:13:11;11.40;99.90
36132;DHT22;22185;48.738;9.324;2022-10-17T04:15:12;11.30;99.90
36132;DHT22;22185;48.738;9.324;2022-10-17T04:17:15;11.30;99.90
36132;DHT22;22185;48.738;9.324;2022-10-17T04:19:16;11.20;99.90
36132;DHT22;22185;48.738;9.324;2022-10-17T04:21:18;11.30;99.90
36132;DHT22;22185;48.738;9.324;2022-10-17T04:23:20;11.30;99.90
36132;DHT22;22185;48.738;9.324;2022-10-17T04:25:21;11.20;99.90
36132;DHT22;22185;48.738;9.324;2022-10-17T04:27:23;11.40;99.90
36132;DHT22;22185;48.738;9.324;2022-10-17T04:29:24;11.40;99.90
36132;DHT22;22185;48.738;9.324;2022-10-17T04:31:26;11.40;99.90
36132;DHT22;22185;48.738;9.324;2022-10-17T04:33:29;11.40;99.90
36132;DHT22;22185;48.738;9.324;2022-10-17T04:35:31;11.30;99.90
36132;DHT22;22185;48.738;9.324;2022-10-17T04:37:33;11.20;99.90
36132;DHT22;22185;48.738;9.324;2022-10-17T04:39:35;11.20;99.90
36132;DHT22;22185;48.738;9.324;2022-10-17T04:41:36;11.10;99.90
36132;DHT22;22185;48.738;9.324;2022-10-17T04:43:38;11.10;99.90
36132;DHT22;22185;48.738;9.324;2022-10-17T04:45:40;11.10;99.90
36132;DHT22;22185;48.738;9.324;2022-10-17T04:47:42;11.10;99.90
36132;DHT22;22185;48.738;9.324;2022-10-17T04:49:43;11.20;99.90
36132;DHT22;22185;48.738;9.324;2022-10-17T04:51:45;11.20;99.90
36132;DHT22;22185;48.738;9.324;2022-10-17T04:53:47;11.30;99.90
36132;DHT22;22185;48.738;9.324;2022-10-17T04:55:48;11.30;99.90
36132;DHT22;22185;48.738;9.324;2022-10-17T04:57:50;11.40;99.90
36132;DHT22;22185;48.738;9.324;2022-10-17T04:59:52;11.40;99.90
36132;DHT22;22185;48.738;9.324;2022-10-17T05:01:53;11.40;99.90
36132;DHT22;22185;48.738;9.324;2022-10-17T05:03:57;11.40;99.90
36132;DHT22;22185;48.738;9.324;2022-10-17T05:06:02;11.30;99.90
36132;DHT22;22185;48.738;9.324;2022-10-17T05:08:07;11.20;99.90
36132;DHT22;22185;48.738;9.324;2022-10-17T05:10:09;11.20;99.90
36132;DHT22;22185;48.738;9.324;2022-10-17T05:12:10;11.20;99.90
36132;DHT22;22185;48.738;9.324;2022-10-17T05:14:12;11.30;99.90
36132;DHT22;22185;48.738;9.324;2022-10-17T05:16:13;11.30;99.90
36132;DHT22;22185;48.738;9.324;2022-10-17T05:18:17;11.30;99.90
36132;DHT22;22185;48.738;9.324;2022-10-17T05:20:21;11.30;99.90
36132;DHT22;22185;48.738;9.324;2022-10-17T05:22:22;11.40;99.90
36132;DHT22;22185;48.738;9.324;2022-10-17T05:24:24;11.30;99.90
36132;DHT22;22185;48.738;9.324;2022-10-17T05:26:26;11.20;99.90
36132;DHT22;22185;48.738;9.324;2022-10-17T05:28:27;11.10;99.90
36132;DHT22;22185;48.738;9.324;2022-10-17T05:30:29;11.10;99.90
36132;DHT22;22185;48.738;9.324;2022-10-17T05:32:37;11.10;99.90
36132;DHT22;22185;48.738;9.324;2022-10-17T05:34:39;11.10;99.90
36132;DHT22;22185;48.738;9.324;2022-10-17T05:36:41;11.10;99.90
36132;DHT22;22185;48.738;9.324;2022-10-17T05:38:42;11.10;99.90
36132;DHT22;22185;48.738;9.324;2022-10-17T05:40:45;11.10;99.90
36132;DHT22;22185;48.738;9.324;2022-10-17T05:42:47;11.20;99.90
36132;DHT22;22185;48.738;9.324;2022-10-17T05:44:49;11.20;99.90
36132;DHT22;22185;48.738;9.324;2022-10-17T05:46:50;11.20;99.90
36132;DHT22;22185;48.738;9.324;2022-10-17T05:48:52;11.10;99.90
36132;DHT22;22185;48.738;9.324;2022-10-17T05:50:56;11.10;99.90
36132;DHT22;22185;48.738;9.324;2022-10-17T05:52:58;11.10;99.90
36132;DHT22;22185;48.738;9.324;2022-10-17T05:54:59;11.10;99.90
36132;DHT22;22185;48.738;9.324;2022-10-17T05:57:01;11.10;99.90
36132;DHT22;22185;48.738;9.324;2022-10-17T05:59:03;11.10;99.90
36132;DHT22;22185;48.738;9.324;2022-10-17T06:01:05;11.10;99.90
36132;DHT22;22185;48.738;9.324;2022-10-17T06:03:12;11.10;99.90
36132;DHT22;22185;48.738;9.324;2022-10-17T06:05:14;11.10;99.90
36132;DHT22;22185;48.738;9.324;2022-10-17T06:07:15;11.10;99.90
36132;DHT22;22185;48.738;9.324;2022-10-17T06:09:17;11.20;99.90
36132;DHT22;22185;48.738;9.324;2022-10-17T06:11:19;11.20;99.90
36132;DHT22;22185;48.738;9.324;2022-10-17T06:13:21;11.10;99.90
36132;DHT22;22185;48.738;9.324;2022-10-17T06:15:25;11.20;99.90
36132;DHT22;22185;48.738;9.324;2022-10-17T06:17:27;11.20;99.90
36132;DHT22;22185;48.738;9.324;2022-10-17T06:19:30;11.20;99.90
36132;DHT22;22185;48.738;9.324;2022-10-17T06:21:32;11.20;99.90
36132;DHT22;22185;48.738;9.324;2022-10-17T06:23:37;11.20;99.90
36132;DHT22;22185;48.738;9.324;2022-10-17T06:25:39;11.10;99.90
36132;DHT22;22185;48.738;9.324;2022-10-17T06:27:41;11.10;99.90
36132;DHT22;22185;48.738;9.324;2022-10-17T06:29:43;11.20;99.90
36132;DHT22;22185;48.738;9.324;2022-10-17T06:31:44;11.20;99.90
36132;DHT22;22185;48.738;9.324;2022-10-17T06:33:46;11.30;99.90
36132;DHT22;22185;48.738;9.324;2022-10-17T06:35:51;11.30;99.90
36132;DHT22;22185;48.738;9.324;2022-10-17T06:37:52;11.20;99.90
36132;DHT22;22185;48.738;9.324;2022-10-17T06:39:54;11.20;99.90
36132;DHT22;22185;48.738;9.324;2022-10-17T06:41:56;11.30;99.90
36132;DHT22;22185;48.738;9.324;2022-10-17T06:43:57;11.30;99.90
36132;DHT22;22185;48.738;9.324;2022-10-17T06:45:59;11.30;99.90
36132;DHT22;22185;48.738;9.324;2022-10-17T06:48:01;11.30;99.90
36132;DHT22;22185;48.738;9.324;2022-10-17T06:50:02;11.40;99.90
36132;DHT22;22185;48.738;9.324;2022-10-17T06:52:04;11.50;99.90
36132;DHT22;22185;48.738;9.324;2022-10-17T06:54:06;11.50;99.90
36132;DHT22;22185;48.738;9.324;2022-10-17T06:56:09;11.50;99.90
36132;DHT22;22185;48.738;9.324;2022-10-17T06:58:10;11.60;99.90
36132;DHT22;22185;48.738;9.324;2022-10-17T07:00:12;11.70;99.90
36132;DHT22;22185;48.738;9.324;2022-10-17T07:02:14;11.70;99.90
36132;DHT22;22185;48.738;9.324;2022-10-17T07:04:16;11.70;99.90
36132;DHT22;22185;48.738;9.324;2022-10-17T07:06:18;11.60;99.90
36132;DHT22;22185;48.738;9.324;2022-10-17T07:08:19;11.70;99.90
36132;DHT22;22185;48.738;9.324;2022-10-17T07:10:22;11.80;99.90
36132;DHT22;22185;48.738;9.324;2022-10-17T07:12:24;11.80;99.90
36132;DHT22;22185;48.738;9.324;2022-10-17T07:14:26;11.90;99.90
36132;DHT22;22185;48.738;9.324;2022-10-17T07:16:32;12.00;99.90
36132;DHT22;22185;48.738;9.324;2022-10-17T07:18:34;12.00;99.90
36132;DHT22;22185;48.738;9.324;2022-10-17T07:20:36;11.90;99.90
36132;DHT22;22185;48.738;9.324;2022-10-17T07:22:37;12.00;99.90
36132;DHT22;22185;48.738;9.324;2022-10-17T07:24:39;12.00;99.90
36132;DHT22;22185;48.738;9.324;2022-10-17T07:26:41;12.10;99.90
36132;DHT22;22185;48.738;9.324;2022-10-17T07:28:43;12.10;99.90
36132;DHT22;22185;48.738;9.324;2022-10-17T07:30:45;12.20;99.90
36132;DHT22;22185;48.738;9.324;2022-10-17T07:32:54;12.20;99.90
36132;DHT22;22185;48.738;9.324;2022-10-17T07:34:55;12.30;99.90
36132;DHT22;22185;48.738;9.324;2022-10-17T07:36:57;12.30;99.90
36132;DHT22;22185;48.738;9.324;2022-10-17T07:38:59;12.40;99.90
36132;DHT22;22185;48.738;9.324;2022-10-17T07:41:03;12.60;99.90
36132;DHT22;22185;48.738;9.324;2022-10-17T07:43:05;12.70;99.90
36132;DHT22;22185;48.738;9.324;2022-10-17T07:45:08;12.80;99.90
36132;DHT22;22185;48.738;9.324;2022-10-17T07:47:11;12.90;99.90
36132;DHT22;22185;48.738;9.324;2022-10-17T07:49:13;13.00;99.90
36132;DHT22;22185;48.738;9.324;2022-10-17T07:51:14;13.10;99.90
36132;DHT22;22185;48.738;9.324;2022-10-17T07:53:17;13.10;99.90
36132;DHT22;22185;48.738;9.324;2022-10-17T07:55:19;13.10;99.90
36132;DHT22;22185;48.738;9.324;2022-10-17T07:57:20;13.10;99.90
36132;DHT22;22185;48.738;9.324;2022-10-17T07:59:22;13.20;99.90
36132;DHT22;22185;48.738;9.324;2022-10-17T08:01:24;13.30;99.90
36132;DHT22;22185;48.738;9.324;2022-10-17T08:03:26;13.40;99.90
36132;DHT22;22185;48.738;9.324;2022-10-17T08:05:28;13.40;99.90
36132;DHT22;22185;48.738;9.324;2022-10-17T08:07:30;13.60;99.90
36132;DHT22;22185;48.738;9.324;2022-10-17T08:09:31;13.70;99.90
36132;DHT22;22185;48.738;9.324;2022-10-17T08:11:33;13.80;99.90
36132;DHT22;22185;48.738;9.324;2022-10-17T08:13:36;13.80;99.90
36132;DHT22;22185;48.738;9.324;2022-10-17T08:15:38;14.00;99.90
36132;DHT22;22185;48.738;9.324;2022-10-17T08:17:39;14.10;99.90
36132;DHT22;22185;48.738;9.324;2022-10-17T08:19:41;14.20;99.90
36132;DHT22;22185;48.738;9.324;2022-10-17T08:21:43;14.30;99.90
36132;DHT22;22185;48.738;9.324;2022-10-17T08:23:47;14.40;99.90
36132;DHT22;22185;48.738;9.324;2022-10-17T08:25:48;14.40;99.90
36132;DHT22;22185;48.738;9.324;2022-10-17T08:27:50;14.50;99.90
36132;DHT22;22185;48.738;9.324;2022-10-17T08:29:51;14.50;99.90
36132;DHT22;22185;48.738;9.324;2022-10-17T08:31:54;14.60;99.90
36132;DHT22;22185;48.738;9.324;2022-10-17T08:34:01;14.80;99.90
36132;DHT22;22185;48.738;9.324;2022-10-17T08:36:04;15.00;99.90
36132;DHT22;22185;48.738;9.324;2022-10-17T08:38:05;15.10;99.90
36132;DHT22;22185;48.738;9.324;2022-10-17T08:40:47;15.10;99.90
36132;DHT22;22185;48.738;9.324;2022-10-17T08:46:58;15.20;99.90
36132;DHT22;22185;48.738;9.324;2022-10-17T08:49:02;15.40;99.90
36132;DHT22;22185;48.738;9.324;2022-10-17T08:53:14;15.50;99.90
36132;DHT22;22185;48.738;9.324;2022-10-17T08:57:23;15.70;99.90
36132;DHT22;22185;48.738;9.324;2022-10-17T08:59:26;15.80;99.90
36132;DHT22;22185;48.738;9.324;2022-10-17T09:05:55;16.30;99.90
36132;DHT22;22185;48.738;9.324;2022-10-17T09:19:59;17.20;99.90
36132;DHT22;22185;48.738;9.324;2022-10-17T09:22:05;17.20;99.90
36132;DHT22;22185;48.738;9.324;2022-10-17T09:24:12;17.50;99.90
36132;DHT22;22185;48.738;9.324;2022-10-17T09:26:16;17.50;99.90
36132;DHT22;22185;48.738;9.324;2022-10-17T09:28:19;17.50;99.90
36132;DHT22;22185;48.738;9.324;2022-10-17T09:30:25;17.60;99.90
36132;DHT22;22185;48.738;9.324;2022-10-17T09:32:45;17.60;99.90
36132;DHT22;22185;48.738;9.324;2022-10-17T09:34:48;17.70;99.90
36132;DHT22;22185;48.738;9.324;2022-10-17T09:36:49;18.00;99.90
36132;DHT22;22185;48.738;9.324;2022-10-17T09:38:52;18.30;99.90
36132;DHT22;22185;48.738;9.324;2022-10-17T09:40:55;18.50;99.90
36132;DHT22;22185;48.738;9.324;2022-10-17T09:42:58;18.30;99.90
36132;DHT22;22185;48.738;9.324;2022-10-17T09:45:10;18.40;99.90
36132;DHT22;22185;48.738;9.324;2022-10-17T09:47:18;18.60;99.90
36132;DHT22;22185;48.738;9.324;2022-10-17T09:50:04;18.70;99.90
36132;DHT22;22185;48.738;9.324;2022-10-17T09:51:45;18.80;99.90
36132;DHT22;22185;48.738;9.324;2022-10-17T09:53:49;19.00;99.90
36132;DHT22;22185;48.738;9.324;2022-10-17T09:55:58;19.10;99.90
36132;DHT22;22185;48.738;9.324;2022-10-17T09:58:01;19.00;99.90
36132;DHT22;22185;48.738;9.324;2022-10-17T10:00:04;19.00;99.90
36132;DHT22;22185;48.738;9.324;2022-10-17T10:04:15;19.20;99.90
36132;DHT22;22185;48.738;9.324;2022-10-17T10:06:18;19.40;99.90
36132;DHT22;22185;48.738;9.324;2022-10-17T10:08:20;19.40;99.90
36132;DHT22;22185;48.738;9.324;2022-10-17T10:10:23;19.40;99.90
36132;DHT22;22185;48.738;9.324;2022-10-17T10:12:29;19.70;99.90
36132;DHT22;22185;48.738;9.324;2022-10-17T10:14:33;19.70;99.90
36132;DHT22;22185;48.738;9.324;2022-10-17T10:16:35;19.70;99.90
36132;DHT22;22185;48.738;9.324;2022-10-17T10:18:42;19.80;99.90
36132;DHT22;22185;48.738;9.324;2022-10-17T10:20:47;20.10;99.90
36132;DHT22;22185;48.738;9.324;2022-10-17T10:23:06;19.90;99.90
36132;DHT22;22185;48.738;9.324;2022-10-17T10:25:15;20.20;99.90
36132;DHT22;22185;48.738;9.324;2022-10-17T10:27:17;20.30;99.90
36132;DHT22;22185;48.738;9.324;2022-10-17T10:31:33;20.60;99.90
36132;DHT22;22185;48.738;9.324;2022-10-17T10:33:36;20.40;99.90
36132;DHT22;22185;48.738;9.324;2022-10-17T10:35:42;20.50;99.90
36132;DHT22;22185;48.738;9.324;2022-10-17T10:37:52;20.50;99.90
36132;DHT22;22185;48.738;9.324;2022-10-17T10:39:58;20.60;99.90
36132;DHT22;22185;48.738;9.324;2022-10-17T10:42:02;20.80;99.90
36132;DHT22;22185;48.738;9.324;2022-10-17T10:44:04;20.90;99.90
36132;DHT22;22185;48.738;9.324;2022-10-17T10:46:19;21.10;99.90
36132;DHT22;22185;48.738;9.324;2022-10-17T10:48:55;21.40;99.90
36132;DHT22;22185;48.738;9.324;2022-10-17T10:52:55;21.50;99.90
36132;DHT22;22185;48.738;9.324;2022-10-17T10:55:09;21.70;99.90
36132;DHT22;22185;48.738;9.324;2022-10-17T10:57:16;21.70;99.90
36132;DHT22;22185;48.738;9.324;2022-10-17T10:59:26;21.70;99.90
36132;DHT22;22185;48.738;9.324;2022-10-17T11:03:52;21.90;99.90
36132;DHT22;22185;48.738;9.324;2022-10-17T11:05:57;21.90;99.90
36132;DHT22;22185;48.738;9.324;2022-10-17T11:08:36;22.20;99.90
36132;DHT22;22185;48.738;9.324;2022-10-17T11:10:36;22.30;99.90
36132;DHT22;22185;48.738;9.324;2022-10-17T11:12:50;22.70;99.90
36132;DHT22;22185;48.738;9.324;2022-10-17T11:17:03;23.00;99.90
36132;DHT22;22185;48.738;9.324;2022-10-17T11:19:13;23.20;99.90
36132;DHT22;22185;48.738;9.324;2022-10-17T11:21:37;23.40;99.90
36132;DHT22;22185;48.738;9.324;2022-10-17T11:25:50;23.30;99.90
36132;DHT22;22185;48.738;9.324;2022-10-17T11:27:52;23.50;99.90
36132;DHT22;22185;48.738;9.324;2022-10-17T11:29:54;23.30;99.90
36132;DHT22;22185;48.738;9.324;2022-10-17T11:31:56;23.40;99.90
36132;DHT22;22185;48.738;9.324;2022-10-17T11:33:59;23.60;99.90
36132;DHT22;22185;48.738;9.324;2022-10-17T11:36:03;23.70;99.90
36132;DHT22;22185;48.738;9.324;2022-10-17T11:44:39;25.00;99.90
36132;DHT22;22185;48.738;9.324;2022-10-17T11:46:41;25.40;99.90
36132;DHT22;22185;48.738;9.324;2022-10-17T11:51:09;25.50;99.90
36132;DHT22;22185;48.738;9.324;2022-10-17T11:53:35;25.40;99.90
36132;DHT22;22185;48.738;9.324;2022-10-17T11:55:40;25.50;99.90
36132;DHT22;22185;48.738;9.324;2022-10-17T11:59:58;25.70;99.90
36132;DHT22;22185;48.738;9.324;2022-10-17T12:02:03;25.60;99.90
36132;DHT22;22185;48.738;9.324;2022-10-17T12:10:27;26.90;99.90
36132;DHT22;22185;48.738;9.324;2022-10-17T12:12:34;27.30;99.90
36132;DHT22;22185;48.738;9.324;2022-10-17T12:14:42;27.50;99.90
36132;DHT22;22185;48.738;9.324;2022-10-17T12:16:45;28.00;99.90
36132;DHT22;22185;48.738;9.324;2022-10-17T12:18:48;28.30;99.90
36132;DHT22;22185;48.738;9.324;2022-10-17T12:20:55;29.90;99.90
36132;DHT22;22185;48.738;9.324;2022-10-17T12:22:59;29.50;99.90
36132;DHT22;22185;48.738;9.324;2022-10-17T12:25:02;30.70;99.90
36132;DHT22;22185;48.738;9.324;2022-10-17T12:27:20;30.90;99.90
36132;DHT22;22185;48.738;9.324;2022-10-17T12:29:25;30.60;99.90
36132;DHT22;22185;48.738;9.324;2022-10-17T12:31:28;30.90;99.90
36132;DHT22;22185;48.738;9.324;2022-10-17T12:33:38;30.90;99.90
36132;DHT22;22185;48.738;9.324;2022-10-17T12:35:49;31.00;99.70
36132;DHT22;22185;48.738;9.324;2022-10-17T12:39:57;30.30;99.90
36132;DHT22;22185;48.738;9.324;2022-10-17T12:41:59;30.80;99.80
36132;DHT22;22185;48.738;9.324;2022-10-17T12:44:00;30.10;99.90
36132;DHT22;22185;48.738;9.324;2022-10-17T12:46:03;28.70;99.90
36132;DHT22;22185;48.738;9.324;2022-10-17T12:48:08;29.30;99.90
36132;DHT22;22185;48.738;9.324;2022-10-17T12:50:59;29.10;99.90
36132;DHT22;22185;48.738;9.324;2022-10-17T12:54:39;29.60;99.10
36132;DHT22;22185;48.738;9.324;2022-10-17T12:57:00;30.30;99.90
36132;DHT22;22185;48.738;9.324;2022-10-17T12:59:06;29.00;99.90
36132;DHT22;22185;48.738;9.324;2022-10-17T13:01:08;29.30;99.90
36132;DHT22;22185;48.738;9.324;2022-10-17T13:03:31;29.40;99.90
36132;DHT22;22185;48.738;9.324;2022-10-17T13:05:34;28.30;99.90
36132;DHT22;22185;48.738;9.324;2022-10-17T13:07:36;28.80;99.90
36132;DHT22;22185;48.738;9.324;2022-10-17T13:09:41;27.70;99.90
36132;DHT22;22185;48.738;9.324;2022-10-17T13:11:44;28.10;99.90
36132;DHT22;22185;48.738;9.324;2022-10-17T13:13:49;28.10;99.90
36132;DHT22;22185;48.738;9.324;2022-10-17T13:15:53;28.60;99.90
36132;DHT22;22185;48.738;9.324;2022-10-17T13:17:56;28.50;99.90
36132;DHT22;22185;48.738;9.324;2022-10-17T13:19:58;28.60;99.90
36132;DHT22;22185;48.738;9.324;2022-10-17T13:22:00;28.50;99.90
36132;DHT22;22185;48.738;9.324;2022-10-17T13:24:20;28.60;99.90
36132;DHT22;22185;48.738;9.324;2022-10-17T13:26:26;28.20;99.90
36132;DHT22;22185;48.738;9.324;2022-10-17T13:28:28;27.80;99.90
36132;DHT22;22185;48.738;9.324;2022-10-17T13:30:31;28.00;99.90
36132;DHT22;22185;48.738;9.324;2022-10-17T13:32:34;27.70;99.90
36132;DHT22;22185;48.738;9.324;2022-10-17T13:34:36;28.10;99.90
36132;DHT22;22185;48.738;9.324;2022-10-17T13:36:38;28.60;99.90
36132;DHT22;22185;48.738;9.324;2022-10-17T13:38:48;28.30;99.90
36132;DHT22;22185;48.738;9.324;2022-10-17T13:40:50;28.30;99.90
36132;DHT22;22185;48.738;9.324;2022-10-17T13:42:52;27.90;99.90
36132;DHT22;22185;48.738;9.324;2022-10-17T13:44:54;28.10;99.90
36132;DHT22;22185;48.738;9.324;2022-10-17T13:46:56;29.10;99.90
36132;DHT22;22185;48.738;9.324;2022-10-17T13:48:58;29.50;99.90
36132;DHT22;22185;48.738;9.324;2022-10-17T13:51:01;29.20;99.20
36132;DHT22;22185;48.738;9.324;2022-10-17T13:55:27;28.50;99.90
36132;DHT22;22185;48.738;9.324;2022-10-17T13:57:29;28.80;99.90
36132;DHT22;22185;48.738;9.324;2022-10-17T13:59:38;29.20;99.90
36132;DHT22;22185;48.738;9.324;2022-10-17T14:01:40;27.90;99.90
36132;DHT22;22185;48.738;9.324;2022-10-17T14:03:43;28.00;99.90
36132;DHT22;22185;48.738;9.324;2022-10-17T14:08:01;28.80;99.90
36132;DHT22;22185;48.738;9.324;2022-10-17T14:10:21;28.90;99.90
36132;DHT22;22185;48.738;9.324;2022-10-17T14:12:23;28.80;99.90
36132;DHT22;22185;48.738;9.324;2022-10-17T14:14:25;28.70;99.90
36132;DHT22;22185;48.738;9.324;2022-10-17T14:16:38;29.00;99.90
36132;DHT22;22185;48.738;9.324;2022-10-17T14:18:40;29.50;99.90
36132;DHT22;22185;48.738;9.324;2022-10-17T14:20:45;28.70;99.90
36132;DHT22;22185;48.738;9.324;2022-10-17T14:23:25;27.40;99.90
36132;DHT22;22185;48.738;9.324;2022-10-17T14:25:33;27.80;99.90
36132;DHT22;22185;48.738;9.324;2022-10-17T14:27:51;28.00;99.90
36132;DHT22;22185;48.738;9.324;2022-10-17T14:29:59;27.30;99.90
36132;DHT22;22185;48.738;9.324;2022-10-17T14:32:03;27.60;99.90
36132;DHT22;22185;48.738;9.324;2022-10-17T14:34:05;27.50;99.90
36132;DHT22;22185;48.738;9.324;2022-10-17T14:36:06;27.10;99.90
36132;DHT22;22185;48.738;9.324;2022-10-17T14:38:11;27.80;99.90
36132;DHT22;22185;48.738;9.324;2022-10-17T14:40:14;27.40;99.90
36132;DHT22;22185;48.738;9.324;2022-10-17T14:42:17;27.10;99.90
36132;DHT22;22185;48.738;9.324;2022-10-17T14:46:22;27.50;99.90
36132;DHT22;22185;48.738;9.324;2022-10-17T14:48:24;27.70;99.90
36132;DHT22;22185;48.738;9.324;2022-10-17T14:50:27;27.80;99.90